sensor_id;sensor_type;location;lat;lon;timestamp;P1;durP1;ratioP1;P2;durP2;ratioP2
11283;SDS011;5698;47.332;11.180;2023-07-09T00:00:11;5.37;;;3.90;;
11283;SDS011;5698;47.332;11.180;2023-07-09T00:02:40;5.10;;;4.13;;
11283;SDS011;5698;47.332;11.180;2023-07-09T00:05:11;5.50;;;4.30;;
11283;SDS011;5698;47.332;11.180;2023-07-09T00:07:40;5.93;;;4.03;;
11283;SDS011;5698;47.332;11.180;2023-07-09T00:10:14;6.67;;;4.67;;
11283;SDS011;5698;47.332;11.180;2023-07-09T00:12:42;5.90;;;3.87;;
11283;SDS011;5698;47.332;11.180;2023-07-09T00:15:10;6.90;;;4.50;;
11283;SDS011;5698;47.332;11.180;2023-07-09T00:17:38;5.83;;;4.27;;
11283;SDS011;5698;47.332;11.180;2023-07-09T00:20:06;4.77;;;4.03;;
11283;SDS011;5698;47.332;11.180;2023-07-09T00:22:38;6.50;;;4.50;;
11283;SDS011;5698;47.332;11.180;2023-07-09T00:25:07;6.53;;;4.30;;
11283;SDS011;5698;47.332;11.180;2023-07-09T00:27:38;5.17;;;4.30;;
11283;SDS011;5698;47.332;11.180;2023-07-09T00:30:12;7.20;;;3.87;;
11283;SDS011;5698;47.332;11.180;2023-07-09T00:32:42;4.93;;;4.23;;
11283;SDS011;5698;47.332;11.180;2023-07-09T00:35:11;5.70;;;4.60;;
11283;SDS011;5698;47.332;11.180;2023-07-09T00:37:40;6.23;;;3.93;;
11283;SDS011;5698;47.332;11.180;2023-07-09T00:40:10;6.77;;;4.67;;
11283;SDS011;5698;47.332;11.180;2023-07-09T00:42:44;5.57;;;4.43;;
11283;SDS011;5698;47.332;11.180;2023-07-09T00:45:17;5.60;;;4.23;;
11283;SDS011;5698;47.332;11.180;2023-07-09T00:47:48;4.60;;;3.90;;
11283;SDS011;5698;47.332;11.180;2023-07-09T00:50:23;5.93;;;4.23;;
11283;SDS011;5698;47.332;11.180;2023-07-09T00:52:59;7.43;;;4.50;;
11283;SDS011;5698;47.332;11.180;2023-07-09T00:55:33;4.80;;;3.77;;
11283;SDS011;5698;47.332;11.180;2023-07-09T00:58:04;6.73;;;4.60;;
11283;SDS011;5698;47.332;11.180;2023-07-09T01:00:36;5.30;;;4.40;;
11283;SDS011;5698;47.332;11.180;2023-07-09T01:03:11;5.67;;;4.40;;
11283;SDS011;5698;47.332;11.180;2023-07-09T01:05:45;8.70;;;4.90;;
11283;SDS011;5698;47.332;11.180;2023-07-09T01:08:17;9.30;;;4.70;;
11283;SDS011;5698;47.332;11.180;2023-07-09T01:10:45;5.43;;;4.20;;
11283;SDS011;5698;47.332;11.180;2023-07-09T01:13:12;6.17;;;4.00;;
11283;SDS011;5698;47.332;11.180;2023-07-09T01:15:40;5.27;;;4.20;;
11283;SDS011;5698;47.332;11.180;2023-07-09T01:18:08;5.23;;;4.43;;
11283;SDS011;5698;47.332;11.180;2023-07-09T01:20:35;5.13;;;4.40;;
11283;SDS011;5698;47.332;11.180;2023-07-09T01:23:05;6.00;;;3.83;;
11283;SDS011;5698;47.332;11.180;2023-07-09T01:25:33;8.53;;;3.93;;
11283;SDS011;5698;47.332;11.180;2023-07-09T01:28:02;6.53;;;4.13;;
11283;SDS011;5698;47.332;11.180;2023-07-09T01:30:30;5.70;;;4.10;;
11283;SDS011;5698;47.332;11.180;2023-07-09T01:33:01;6.27;;;3.97;;
11283;SDS011;5698;47.332;11.180;2023-07-09T01:35:29;5.73;;;4.17;;
11283;SDS011;5698;47.332;11.180;2023-07-09T01:37:58;6.13;;;4.17;;
11283;SDS011;5698;47.332;11.180;2023-07-09T01:40:26;6.53;;;4.33;;
11283;SDS011;5698;47.332;11.180;2023-07-09T01:42:54;5.47;;;4.40;;
11283;SDS011;5698;47.332;11.180;2023-07-09T01:45:23;6.37;;;4.60;;
11283;SDS011;5698;47.332;11.180;2023-07-09T01:47:51;5.03;;;4.50;;
11283;SDS011;5698;47.332;11.180;2023-07-09T01:50:20;5.20;;;3.77;;
11283;SDS011;5698;47.332;11.180;2023-07-09T01:52:49;7.03;;;4.13;;
11283;SDS011;5698;47.332;11.180;2023-07-09T01:55:17;5.07;;;4.00;;
11283;SDS011;5698;47.332;11.180;2023-07-09T01:57:45;5.57;;;3.97;;
11283;SDS011;5698;47.332;11.180;2023-07-09T02:00:14;6.67;;;3.97;;
11283;SDS011;5698;47.332;11.180;2023-07-09T02:02:43;5.27;;;4.50;;
11283;SDS011;5698;47.332;11.180;2023-07-09T02:05:13;5.20;;;4.47;;
11283;SDS011;5698;47.332;11.180;2023-07-09T02:07:43;6.40;;;4.37;;
11283;SDS011;5698;47.332;11.180;2023-07-09T02:10:10;5.23;;;4.00;;
11283;SDS011;5698;47.332;11.180;2023-07-09T02:12:38;5.13;;;4.20;;
11283;SDS011;5698;47.332;11.180;2023-07-09T02:15:07;5.57;;;4.03;;
11283;SDS011;5698;47.332;11.180;2023-07-09T02:17:35;7.13;;;3.97;;
11283;SDS011;5698;47.332;11.180;2023-07-09T02:20:02;4.87;;;3.87;;
11283;SDS011;5698;47.332;11.180;2023-07-09T02:22:32;6.17;;;3.97;;
11283;SDS011;5698;47.332;11.180;2023-07-09T02:24:58;6.07;;;3.80;;
11283;SDS011;5698;47.332;11.180;2023-07-09T02:27:26;4.73;;;3.90;;
11283;SDS011;5698;47.332;11.180;2023-07-09T02:29:54;6.13;;;3.70;;
11283;SDS011;5698;47.332;11.180;2023-07-09T02:32:22;5.23;;;4.13;;
11283;SDS011;5698;47.332;11.180;2023-07-09T02:34:52;5.30;;;3.80;;
11283;SDS011;5698;47.332;11.180;2023-07-09T02:37:20;5.73;;;4.50;;
11283;SDS011;5698;47.332;11.180;2023-07-09T02:39:49;4.47;;;4.07;;
11283;SDS011;5698;47.332;11.180;2023-07-09T02:42:17;5.63;;;4.03;;
11283;SDS011;5698;47.332;11.180;2023-07-09T02:44:45;5.07;;;4.37;;
11283;SDS011;5698;47.332;11.180;2023-07-09T02:47:13;4.77;;;3.87;;
11283;SDS011;5698;47.332;11.180;2023-07-09T02:49:41;5.67;;;4.10;;
11283;SDS011;5698;47.332;11.180;2023-07-09T02:52:08;5.67;;;4.00;;
11283;SDS011;5698;47.332;11.180;2023-07-09T02:54:36;5.33;;;3.97;;
11283;SDS011;5698;47.332;11.180;2023-07-09T02:57:03;6.13;;;4.27;;
11283;SDS011;5698;47.332;11.180;2023-07-09T02:59:30;7.23;;;4.27;;
11283;SDS011;5698;47.332;11.180;2023-07-09T03:01:58;6.10;;;4.07;;
11283;SDS011;5698;47.332;11.180;2023-07-09T03:04:25;4.60;;;4.17;;
11283;SDS011;5698;47.332;11.180;2023-07-09T03:06:54;4.93;;;4.17;;
11283;SDS011;5698;47.332;11.180;2023-07-09T03:09:21;5.30;;;3.90;;
11283;SDS011;5698;47.332;11.180;2023-07-09T03:11:48;7.80;;;4.17;;
11283;SDS011;5698;47.332;11.180;2023-07-09T03:14:15;4.73;;;4.03;;
11283;SDS011;5698;47.332;11.180;2023-07-09T03:16:42;5.90;;;4.17;;
11283;SDS011;5698;47.332;11.180;2023-07-09T03:19:09;4.97;;;4.23;;
11283;SDS011;5698;47.332;11.180;2023-07-09T03:21:36;5.03;;;4.10;;
11283;SDS011;5698;47.332;11.180;2023-07-09T03:24:05;4.63;;;4.13;;
11283;SDS011;5698;47.332;11.180;2023-07-09T03:26:33;7.17;;;4.23;;
11283;SDS011;5698;47.332;11.180;2023-07-09T03:29:00;5.17;;;3.97;;
11283;SDS011;5698;47.332;11.180;2023-07-09T03:31:27;5.00;;;4.07;;
11283;SDS011;5698;47.332;11.180;2023-07-09T03:33:54;6.80;;;4.30;;
11283;SDS011;5698;47.332;11.180;2023-07-09T03:36:21;7.00;;;4.00;;
11283;SDS011;5698;47.332;11.180;2023-07-09T03:38:48;6.97;;;4.40;;
11283;SDS011;5698;47.332;11.180;2023-07-09T03:41:17;4.47;;;3.63;;
11283;SDS011;5698;47.332;11.180;2023-07-09T03:43:44;5.33;;;4.17;;
11283;SDS011;5698;47.332;11.180;2023-07-09T03:46:11;6.80;;;4.17;;
11283;SDS011;5698;47.332;11.180;2023-07-09T03:48:38;5.17;;;4.10;;
11283;SDS011;5698;47.332;11.180;2023-07-09T03:51:05;4.33;;;3.80;;
11283;SDS011;5698;47.332;11.180;2023-07-09T03:53:32;8.20;;;4.40;;
11283;SDS011;5698;47.332;11.180;2023-07-09T03:55:59;4.20;;;3.73;;
11283;SDS011;5698;47.332;11.180;2023-07-09T03:58:28;5.47;;;4.30;;
11283;SDS011;5698;47.332;11.180;2023-07-09T04:00:54;5.67;;;3.80;;
11283;SDS011;5698;47.332;11.180;2023-07-09T04:03:22;5.80;;;4.70;;
11283;SDS011;5698;47.332;11.180;2023-07-09T04:05:49;5.07;;;4.33;;
11283;SDS011;5698;47.332;11.180;2023-07-09T04:08:16;9.50;;;4.70;;
11283;SDS011;5698;47.332;11.180;2023-07-09T04:10:43;5.43;;;4.20;;
11283;SDS011;5698;47.332;11.180;2023-07-09T04:13:10;4.93;;;4.43;;
11283;SDS011;5698;47.332;11.180;2023-07-09T04:15:39;5.67;;;4.00;;
11283;SDS011;5698;47.332;11.180;2023-07-09T04:18:05;4.50;;;3.80;;
11283;SDS011;5698;47.332;11.180;2023-07-09T04:20:32;4.63;;;3.90;;
11283;SDS011;5698;47.332;11.180;2023-07-09T04:23:00;6.30;;;4.17;;
11283;SDS011;5698;47.332;11.180;2023-07-09T04:25:28;4.93;;;4.13;;
11283;SDS011;5698;47.332;11.180;2023-07-09T04:27:55;5.30;;;3.90;;
11283;SDS011;5698;47.332;11.180;2023-07-09T04:30:22;4.90;;;3.83;;
11283;SDS011;5698;47.332;11.180;2023-07-09T04:32:50;3.80;;;3.50;;
11283;SDS011;5698;47.332;11.180;2023-07-09T04:35:17;4.37;;;3.67;;
11283;SDS011;5698;47.332;11.180;2023-07-09T04:37:44;4.70;;;3.97;;
11283;SDS011;5698;47.332;11.180;2023-07-09T04:40:11;5.00;;;3.80;;
11283;SDS011;5698;47.332;11.180;2023-07-09T04:42:40;6.60;;;4.07;;
11283;SDS011;5698;47.332;11.180;2023-07-09T04:45:08;4.13;;;3.73;;
11283;SDS011;5698;47.332;11.180;2023-07-09T04:47:37;4.60;;;3.93;;
11283;SDS011;5698;47.332;11.180;2023-07-09T04:50:06;4.37;;;3.97;;
11283;SDS011;5698;47.332;11.180;2023-07-09T04:52:35;5.00;;;4.00;;
11283;SDS011;5698;47.332;11.180;2023-07-09T04:55:03;5.77;;;4.47;;
11283;SDS011;5698;47.332;11.180;2023-07-09T04:57:30;4.20;;;3.77;;
11283;SDS011;5698;47.332;11.180;2023-07-09T04:59:57;4.43;;;3.60;;
11283;SDS011;5698;47.332;11.180;2023-07-09T05:02:24;5.23;;;3.87;;
11283;SDS011;5698;47.332;11.180;2023-07-09T05:04:51;4.90;;;4.40;;
11283;SDS011;5698;47.332;11.180;2023-07-09T05:07:20;4.90;;;4.13;;
11283;SDS011;5698;47.332;11.180;2023-07-09T05:09:47;4.77;;;4.23;;
11283;SDS011;5698;47.332;11.180;2023-07-09T05:12:14;5.87;;;4.00;;
11283;SDS011;5698;47.332;11.180;2023-07-09T05:14:41;3.93;;;3.43;;
11283;SDS011;5698;47.332;11.180;2023-07-09T05:17:08;6.93;;;4.90;;
11283;SDS011;5698;47.332;11.180;2023-07-09T05:19:35;4.83;;;4.00;;
11283;SDS011;5698;47.332;11.180;2023-07-09T05:22:02;5.77;;;4.30;;
11283;SDS011;5698;47.332;11.180;2023-07-09T05:24:31;4.90;;;3.97;;
11283;SDS011;5698;47.332;11.180;2023-07-09T05:26:58;7.97;;;4.30;;
11283;SDS011;5698;47.332;11.180;2023-07-09T05:29:25;5.40;;;4.10;;
11283;SDS011;5698;47.332;11.180;2023-07-09T05:31:52;7.07;;;3.80;;
11283;SDS011;5698;47.332;11.180;2023-07-09T05:34:19;5.43;;;4.00;;
11283;SDS011;5698;47.332;11.180;2023-07-09T05:36:47;6.20;;;4.20;;
11283;SDS011;5698;47.332;11.180;2023-07-09T05:39:14;4.97;;;4.17;;
11283;SDS011;5698;47.332;11.180;2023-07-09T05:41:42;4.73;;;3.77;;
11283;SDS011;5698;47.332;11.180;2023-07-09T05:44:09;6.13;;;4.53;;
11283;SDS011;5698;47.332;11.180;2023-07-09T05:46:37;5.43;;;3.97;;
11283;SDS011;5698;47.332;11.180;2023-07-09T05:49:04;6.97;;;3.70;;
11283;SDS011;5698;47.332;11.180;2023-07-09T05:51:31;6.50;;;4.03;;
11283;SDS011;5698;47.332;11.180;2023-07-09T05:53:58;6.87;;;3.87;;
11283;SDS011;5698;47.332;11.180;2023-07-09T05:56:25;4.90;;;3.90;;
11283;SDS011;5698;47.332;11.180;2023-07-09T05:58:55;7.33;;;4.20;;
11283;SDS011;5698;47.332;11.180;2023-07-09T06:01:22;5.70;;;3.97;;
11283;SDS011;5698;47.332;11.180;2023-07-09T06:03:49;4.07;;;3.50;;
11283;SDS011;5698;47.332;11.180;2023-07-09T06:06:16;6.60;;;3.90;;
11283;SDS011;5698;47.332;11.180;2023-07-09T06:08:43;7.27;;;4.20;;
11283;SDS011;5698;47.332;11.180;2023-07-09T06:11:11;6.23;;;3.93;;
11283;SDS011;5698;47.332;11.180;2023-07-09T06:13:39;6.10;;;3.83;;
11283;SDS011;5698;47.332;11.180;2023-07-09T06:16:07;6.93;;;4.03;;
11283;SDS011;5698;47.332;11.180;2023-07-09T06:18:34;6.13;;;3.87;;
11283;SDS011;5698;47.332;11.180;2023-07-09T06:21:02;4.90;;;3.60;;
11283;SDS011;5698;47.332;11.180;2023-07-09T06:23:29;6.27;;;4.50;;
11283;SDS011;5698;47.332;11.180;2023-07-09T06:25:57;6.57;;;3.87;;
11283;SDS011;5698;47.332;11.180;2023-07-09T06:28:25;6.83;;;3.53;;
11283;SDS011;5698;47.332;11.180;2023-07-09T06:30:54;6.70;;;3.67;;
11283;SDS011;5698;47.332;11.180;2023-07-09T06:33:23;4.80;;;4.00;;
11283;SDS011;5698;47.332;11.180;2023-07-09T06:35:52;5.17;;;3.60;;
11283;SDS011;5698;47.332;11.180;2023-07-09T06:38:20;6.43;;;3.67;;
11283;SDS011;5698;47.332;11.180;2023-07-09T06:40:48;5.63;;;3.40;;
11283;SDS011;5698;47.332;11.180;2023-07-09T06:43:15;5.73;;;3.60;;
11283;SDS011;5698;47.332;11.180;2023-07-09T06:45:49;5.00;;;3.93;;
11283;SDS011;5698;47.332;11.180;2023-07-09T06:48:17;5.43;;;4.07;;
11283;SDS011;5698;47.332;11.180;2023-07-09T06:50:46;4.27;;;3.37;;
11283;SDS011;5698;47.332;11.180;2023-07-09T06:53:13;6.70;;;4.10;;
11283;SDS011;5698;47.332;11.180;2023-07-09T06:55:40;4.13;;;3.73;;
11283;SDS011;5698;47.332;11.180;2023-07-09T06:58:08;3.87;;;3.57;;
11283;SDS011;5698;47.332;11.180;2023-07-09T07:00:35;6.00;;;3.90;;
11283;SDS011;5698;47.332;11.180;2023-07-09T07:03:02;6.70;;;3.80;;
11283;SDS011;5698;47.332;11.180;2023-07-09T07:05:30;5.30;;;3.87;;
11283;SDS011;5698;47.332;11.180;2023-07-09T07:07:59;4.23;;;3.70;;
11283;SDS011;5698;47.332;11.180;2023-07-09T07:10:26;3.77;;;3.00;;
11283;SDS011;5698;47.332;11.180;2023-07-09T07:12:53;5.20;;;3.57;;
11283;SDS011;5698;47.332;11.180;2023-07-09T07:15:20;3.73;;;3.17;;
11283;SDS011;5698;47.332;11.180;2023-07-09T07:17:48;3.57;;;3.27;;
11283;SDS011;5698;47.332;11.180;2023-07-09T07:20:15;6.17;;;3.53;;
11283;SDS011;5698;47.332;11.180;2023-07-09T07:22:43;4.73;;;3.37;;
11283;SDS011;5698;47.332;11.180;2023-07-09T07:25:11;5.40;;;3.20;;
11283;SDS011;5698;47.332;11.180;2023-07-09T07:27:39;5.53;;;3.77;;
11283;SDS011;5698;47.332;11.180;2023-07-09T07:30:06;5.23;;;3.40;;
11283;SDS011;5698;47.332;11.180;2023-07-09T07:32:35;4.33;;;3.70;;
11283;SDS011;5698;47.332;11.180;2023-07-09T07:35:04;4.93;;;3.87;;
11283;SDS011;5698;47.332;11.180;2023-07-09T07:37:31;4.70;;;3.63;;
11283;SDS011;5698;47.332;11.180;2023-07-09T07:39:58;4.43;;;3.33;;
11283;SDS011;5698;47.332;11.180;2023-07-09T07:42:27;6.17;;;3.87;;
11283;SDS011;5698;47.332;11.180;2023-07-09T07:44:54;5.17;;;3.70;;
11283;SDS011;5698;47.332;11.180;2023-07-09T07:47:21;6.10;;;3.60;;
11283;SDS011;5698;47.332;11.180;2023-07-09T07:49:48;5.80;;;3.80;;
11283;SDS011;5698;47.332;11.180;2023-07-09T07:52:15;5.77;;;3.53;;
11283;SDS011;5698;47.332;11.180;2023-07-09T07:54:42;5.10;;;3.20;;
11283;SDS011;5698;47.332;11.180;2023-07-09T07:57:10;5.40;;;3.87;;
11283;SDS011;5698;47.332;11.180;2023-07-09T07:59:38;3.63;;;3.23;;
11283;SDS011;5698;47.332;11.180;2023-07-09T08:02:06;3.83;;;3.23;;
11283;SDS011;5698;47.332;11.180;2023-07-09T08:04:37;5.03;;;3.37;;
11283;SDS011;5698;47.332;11.180;2023-07-09T08:07:05;3.80;;;3.13;;
11283;SDS011;5698;47.332;11.180;2023-07-09T08:09:33;5.53;;;3.50;;
11283;SDS011;5698;47.332;11.180;2023-07-09T08:12:00;6.80;;;3.70;;
11283;SDS011;5698;47.332;11.180;2023-07-09T08:14:30;5.07;;;3.23;;
11283;SDS011;5698;47.332;11.180;2023-07-09T08:16:58;7.67;;;3.33;;
11283;SDS011;5698;47.332;11.180;2023-07-09T08:19:25;4.73;;;3.10;;
11283;SDS011;5698;47.332;11.180;2023-07-09T08:21:52;4.53;;;3.57;;
11283;SDS011;5698;47.332;11.180;2023-07-09T08:24:19;5.83;;;3.60;;
11283;SDS011;5698;47.332;11.180;2023-07-09T08:26:46;4.00;;;3.10;;
11283;SDS011;5698;47.332;11.180;2023-07-09T08:29:13;5.00;;;3.70;;
11283;SDS011;5698;47.332;11.180;2023-07-09T08:31:40;6.30;;;3.27;;
11283;SDS011;5698;47.332;11.180;2023-07-09T08:34:09;3.30;;;3.00;;
11283;SDS011;5698;47.332;11.180;2023-07-09T08:36:35;4.73;;;3.23;;
11283;SDS011;5698;47.332;11.180;2023-07-09T08:39:02;4.00;;;3.50;;
11283;SDS011;5698;47.332;11.180;2023-07-09T08:41:36;6.07;;;3.50;;
11283;SDS011;5698;47.332;11.180;2023-07-09T08:44:16;4.80;;;3.23;;
11283;SDS011;5698;47.332;11.180;2023-07-09T08:46:59;3.93;;;3.23;;
11283;SDS011;5698;47.332;11.180;2023-07-09T08:49:37;4.67;;;3.50;;
11283;SDS011;5698;47.332;11.180;2023-07-09T08:52:09;3.83;;;3.00;;
11283;SDS011;5698;47.332;11.180;2023-07-09T08:54:41;4.67;;;3.70;;
11283;SDS011;5698;47.332;11.180;2023-07-09T08:57:15;7.07;;;3.47;;
11283;SDS011;5698;47.332;11.180;2023-07-09T08:59:48;7.43;;;3.67;;
11283;SDS011;5698;47.332;11.180;2023-07-09T09:02:22;4.40;;;2.93;;
11283;SDS011;5698;47.332;11.180;2023-07-09T09:04:58;6.07;;;3.00;;
11283;SDS011;5698;47.332;11.180;2023-07-09T09:07:28;4.87;;;3.03;;
11283;SDS011;5698;47.332;11.180;2023-07-09T09:10:05;3.50;;;2.87;;
11283;SDS011;5698;47.332;11.180;2023-07-09T09:12:53;5.37;;;3.00;;
11283;SDS011;5698;47.332;11.180;2023-07-09T09:15:29;4.87;;;3.03;;
11283;SDS011;5698;47.332;11.180;2023-07-09T09:17:58;4.40;;;3.40;;
11283;SDS011;5698;47.332;11.180;2023-07-09T09:20:38;3.20;;;2.90;;
11283;SDS011;5698;47.332;11.180;2023-07-09T09:23:10;6.67;;;3.00;;
11283;SDS011;5698;47.332;11.180;2023-07-09T09:25:41;3.50;;;2.87;;
11283;SDS011;5698;47.332;11.180;2023-07-09T09:28:13;4.80;;;3.30;;
11283;SDS011;5698;47.332;11.180;2023-07-09T09:30:40;4.17;;;3.27;;
11283;SDS011;5698;47.332;11.180;2023-07-09T09:33:08;4.63;;;3.10;;
11283;SDS011;5698;47.332;11.180;2023-07-09T09:35:38;6.33;;;2.93;;
11283;SDS011;5698;47.332;11.180;2023-07-09T09:38:09;4.20;;;2.63;;
11283;SDS011;5698;47.332;11.180;2023-07-09T09:40:38;3.77;;;3.20;;
11283;SDS011;5698;47.332;11.180;2023-07-09T09:43:09;3.83;;;2.93;;
11283;SDS011;5698;47.332;11.180;2023-07-09T09:45:39;4.00;;;2.73;;
11283;SDS011;5698;47.332;11.180;2023-07-09T09:48:10;4.00;;;3.00;;
11283;SDS011;5698;47.332;11.180;2023-07-09T09:50:42;5.87;;;3.37;;
11283;SDS011;5698;47.332;11.180;2023-07-09T09:53:13;5.43;;;3.17;;
11283;SDS011;5698;47.332;11.180;2023-07-09T09:55:45;3.83;;;2.97;;
11283;SDS011;5698;47.332;11.180;2023-07-09T09:58:13;4.93;;;3.30;;
11283;SDS011;5698;47.332;11.180;2023-07-09T10:00:46;5.47;;;3.50;;
11283;SDS011;5698;47.332;11.180;2023-07-09T10:03:15;5.20;;;2.90;;
11283;SDS011;5698;47.332;11.180;2023-07-09T10:05:45;3.97;;;3.10;;
11283;SDS011;5698;47.332;11.180;2023-07-09T10:08:18;4.05;;;3.17;;
11283;SDS011;5698;47.332;11.180;2023-07-09T10:10:56;7.45;;;3.28;;
11283;SDS011;5698;47.332;11.180;2023-07-09T10:13:31;4.72;;;2.67;;
11283;SDS011;5698;47.332;11.180;2023-07-09T10:16:05;4.28;;;2.90;;
11283;SDS011;5698;47.332;11.180;2023-07-09T10:18:39;4.70;;;3.08;;
11283;SDS011;5698;47.332;11.180;2023-07-09T10:21:15;3.58;;;2.85;;
11283;SDS011;5698;47.332;11.180;2023-07-09T10:23:48;4.88;;;3.20;;
11283;SDS011;5698;47.332;11.180;2023-07-09T10:26:29;4.40;;;3.40;;
11283;SDS011;5698;47.332;11.180;2023-07-09T10:29:04;5.57;;;3.42;;
11283;SDS011;5698;47.332;11.180;2023-07-09T10:31:50;4.93;;;3.05;;
11283;SDS011;5698;47.332;11.180;2023-07-09T10:34:27;5.18;;;3.47;;
11283;SDS011;5698;47.332;11.180;2023-07-09T10:37:03;4.60;;;3.15;;
11283;SDS011;5698;47.332;11.180;2023-07-09T10:39:41;7.07;;;3.20;;
11283;SDS011;5698;47.332;11.180;2023-07-09T10:42:13;5.43;;;3.22;;
11283;SDS011;5698;47.332;11.180;2023-07-09T10:44:48;3.85;;;3.10;;
11283;SDS011;5698;47.332;11.180;2023-07-09T10:47:25;3.42;;;2.90;;
11283;SDS011;5698;47.332;11.180;2023-07-09T10:49:56;4.88;;;2.70;;
11283;SDS011;5698;47.332;11.180;2023-07-09T10:52:27;3.88;;;2.13;;
11283;SDS011;5698;47.332;11.180;2023-07-09T10:54:59;3.65;;;2.65;;
11283;SDS011;5698;47.332;11.180;2023-07-09T10:57:34;3.67;;;2.05;;
11283;SDS011;5698;47.332;11.180;2023-07-09T11:00:10;4.28;;;2.17;;
11283;SDS011;5698;47.332;11.180;2023-07-09T11:02:40;2.90;;;2.17;;
11283;SDS011;5698;47.332;11.180;2023-07-09T11:05:10;5.35;;;3.17;;
11283;SDS011;5698;47.332;11.180;2023-07-09T11:07:39;3.47;;;3.17;;
11283;SDS011;5698;47.332;11.180;2023-07-09T11:10:12;3.80;;;2.83;;
11283;SDS011;5698;47.332;11.180;2023-07-09T11:12:46;3.08;;;2.65;;
11283;SDS011;5698;47.332;11.180;2023-07-09T11:15:23;6.72;;;2.75;;
11283;SDS011;5698;47.332;11.180;2023-07-09T11:17:53;5.10;;;3.22;;
11283;SDS011;5698;47.332;11.180;2023-07-09T11:20:25;4.18;;;2.85;;
11283;SDS011;5698;47.332;11.180;2023-07-09T11:23:02;4.18;;;3.20;;
11283;SDS011;5698;47.332;11.180;2023-07-09T11:25:40;3.40;;;2.90;;
11283;SDS011;5698;47.332;11.180;2023-07-09T11:28:08;5.65;;;2.95;;
11283;SDS011;5698;47.332;11.180;2023-07-09T11:30:45;3.10;;;2.60;;
11283;SDS011;5698;47.332;11.180;2023-07-09T11:33:16;3.88;;;3.00;;
11283;SDS011;5698;47.332;11.180;2023-07-09T11:35:45;3.22;;;2.75;;
11283;SDS011;5698;47.332;11.180;2023-07-09T11:38:17;4.25;;;2.85;;
11283;SDS011;5698;47.332;11.180;2023-07-09T11:40:46;4.22;;;2.75;;
11283;SDS011;5698;47.332;11.180;2023-07-09T11:43:25;3.63;;;2.40;;
11283;SDS011;5698;47.332;11.180;2023-07-09T11:45:55;4.60;;;2.88;;
11283;SDS011;5698;47.332;11.180;2023-07-09T11:48:37;4.55;;;2.47;;
11283;SDS011;5698;47.332;11.180;2023-07-09T11:51:08;3.42;;;2.40;;
11283;SDS011;5698;47.332;11.180;2023-07-09T11:53:43;3.40;;;2.60;;
11283;SDS011;5698;47.332;11.180;2023-07-09T11:56:13;3.35;;;3.05;;
11283;SDS011;5698;47.332;11.180;2023-07-09T11:58:47;4.05;;;2.88;;
11283;SDS011;5698;47.332;11.180;2023-07-09T12:01:16;3.50;;;2.50;;
11283;SDS011;5698;47.332;11.180;2023-07-09T12:03:45;4.55;;;2.63;;
11283;SDS011;5698;47.332;11.180;2023-07-09T12:06:16;3.67;;;3.25;;
11283;SDS011;5698;47.332;11.180;2023-07-09T12:08:48;3.75;;;2.80;;
11283;SDS011;5698;47.332;11.180;2023-07-09T12:11:21;3.30;;;2.90;;
11283;SDS011;5698;47.332;11.180;2023-07-09T12:13:51;4.78;;;2.58;;
11283;SDS011;5698;47.332;11.180;2023-07-09T12:16:23;3.38;;;2.95;;
11283;SDS011;5698;47.332;11.180;2023-07-09T12:18:51;6.50;;;2.92;;
11283;SDS011;5698;47.332;11.180;2023-07-09T12:21:18;5.38;;;2.80;;
11283;SDS011;5698;47.332;11.180;2023-07-09T12:23:47;4.10;;;2.67;;
11283;SDS011;5698;47.332;11.180;2023-07-09T12:26:16;3.65;;;2.63;;
11283;SDS011;5698;47.332;11.180;2023-07-09T12:28:49;4.50;;;2.63;;
11283;SDS011;5698;47.332;11.180;2023-07-09T12:31:17;3.47;;;2.45;;
11283;SDS011;5698;47.332;11.180;2023-07-09T12:33:47;2.83;;;2.55;;
11283;SDS011;5698;47.332;11.180;2023-07-09T12:36:16;2.47;;;2.25;;
11283;SDS011;5698;47.332;11.180;2023-07-09T12:38:44;3.78;;;2.65;;
11283;SDS011;5698;47.332;11.180;2023-07-09T12:41:18;3.55;;;2.25;;
11283;SDS011;5698;47.332;11.180;2023-07-09T12:43:46;3.97;;;2.58;;
11283;SDS011;5698;47.332;11.180;2023-07-09T12:46:14;3.28;;;2.60;;
11283;SDS011;5698;47.332;11.180;2023-07-09T12:48:42;3.60;;;2.50;;
11283;SDS011;5698;47.332;11.180;2023-07-09T12:51:13;3.28;;;2.60;;
11283;SDS011;5698;47.332;11.180;2023-07-09T12:53:44;5.13;;;2.58;;
11283;SDS011;5698;47.332;11.180;2023-07-09T12:56:12;3.97;;;2.40;;
11283;SDS011;5698;47.332;11.180;2023-07-09T12:58:41;4.57;;;2.83;;
11283;SDS011;5698;47.332;11.180;2023-07-09T13:01:13;3.38;;;2.70;;
11283;SDS011;5698;47.332;11.180;2023-07-09T13:03:42;3.30;;;2.80;;
11283;SDS011;5698;47.332;11.180;2023-07-09T13:06:25;5.57;;;2.67;;
11283;SDS011;5698;47.332;11.180;2023-07-09T13:08:55;4.45;;;2.58;;
11283;SDS011;5698;47.332;11.180;2023-07-09T13:11:24;6.90;;;2.90;;
11283;SDS011;5698;47.332;11.180;2023-07-09T13:13:56;5.40;;;2.83;;
11283;SDS011;5698;47.332;11.180;2023-07-09T13:16:25;5.15;;;2.60;;
11283;SDS011;5698;47.332;11.180;2023-07-09T13:18:52;5.00;;;2.95;;
11283;SDS011;5698;47.332;11.180;2023-07-09T13:21:19;5.70;;;2.70;;
11283;SDS011;5698;47.332;11.180;2023-07-09T13:23:47;3.95;;;2.75;;
11283;SDS011;5698;47.332;11.180;2023-07-09T13:26:15;3.85;;;2.53;;
11283;SDS011;5698;47.332;11.180;2023-07-09T13:28:42;3.83;;;2.40;;
11283;SDS011;5698;47.332;11.180;2023-07-09T13:31:13;3.90;;;2.78;;
11283;SDS011;5698;47.332;11.180;2023-07-09T13:33:41;3.75;;;3.30;;
11283;SDS011;5698;47.332;11.180;2023-07-09T13:36:09;4.05;;;3.05;;
11283;SDS011;5698;47.332;11.180;2023-07-09T13:38:36;4.20;;;2.63;;
11283;SDS011;5698;47.332;11.180;2023-07-09T13:41:09;3.85;;;2.50;;
11283;SDS011;5698;47.332;11.180;2023-07-09T13:43:43;2.88;;;2.47;;
11283;SDS011;5698;47.332;11.180;2023-07-09T13:46:13;5.55;;;2.83;;
11283;SDS011;5698;47.332;11.180;2023-07-09T13:48:41;5.13;;;2.80;;
11283;SDS011;5698;47.332;11.180;2023-07-09T13:51:14;3.20;;;2.80;;
11283;SDS011;5698;47.332;11.180;2023-07-09T13:53:43;3.25;;;2.53;;
11283;SDS011;5698;47.332;11.180;2023-07-09T13:56:10;4.13;;;2.95;;
11283;SDS011;5698;47.332;11.180;2023-07-09T13:58:37;3.22;;;2.50;;
11283;SDS011;5698;47.332;11.180;2023-07-09T14:01:09;4.35;;;2.60;;
11283;SDS011;5698;47.332;11.180;2023-07-09T14:03:39;4.55;;;3.15;;
11283;SDS011;5698;47.332;11.180;2023-07-09T14:06:08;5.88;;;3.25;;
11283;SDS011;5698;47.332;11.180;2023-07-09T14:08:35;3.92;;;3.53;;
11283;SDS011;5698;47.332;11.180;2023-07-09T14:11:02;4.47;;;3.33;;
11283;SDS011;5698;47.332;11.180;2023-07-09T14:13:33;3.25;;;2.75;;
11283;SDS011;5698;47.332;11.180;2023-07-09T14:16:00;6.13;;;2.90;;
11283;SDS011;5698;47.332;11.180;2023-07-09T14:18:28;3.10;;;2.60;;
11283;SDS011;5698;47.332;11.180;2023-07-09T14:20:56;3.58;;;2.65;;
11283;SDS011;5698;47.332;11.180;2023-07-09T14:23:23;3.85;;;2.92;;
11283;SDS011;5698;47.332;11.180;2023-07-09T14:25:51;3.28;;;2.85;;
11283;SDS011;5698;47.332;11.180;2023-07-09T14:28:19;3.47;;;2.65;;
11283;SDS011;5698;47.332;11.180;2023-07-09T14:30:48;6.78;;;2.65;;
11283;SDS011;5698;47.332;11.180;2023-07-09T14:33:16;3.45;;;2.70;;
11283;SDS011;5698;47.332;11.180;2023-07-09T14:35:44;2.60;;;2.38;;
11283;SDS011;5698;47.332;11.180;2023-07-09T14:38:16;4.40;;;2.90;;
11283;SDS011;5698;47.332;11.180;2023-07-09T14:40:45;3.35;;;2.80;;
11283;SDS011;5698;47.332;11.180;2023-07-09T14:43:12;3.80;;;2.63;;
11283;SDS011;5698;47.332;11.180;2023-07-09T14:45:40;4.05;;;2.63;;
11283;SDS011;5698;47.332;11.180;2023-07-09T14:48:08;4.38;;;3.20;;
11283;SDS011;5698;47.332;11.180;2023-07-09T14:50:37;3.80;;;2.67;;
11283;SDS011;5698;47.332;11.180;2023-07-09T14:53:05;5.68;;;3.00;;
11283;SDS011;5698;47.332;11.180;2023-07-09T14:55:41;5.95;;;2.88;;
11283;SDS011;5698;47.332;11.180;2023-07-09T14:58:14;3.30;;;2.75;;
11283;SDS011;5698;47.332;11.180;2023-07-09T15:00:42;4.28;;;2.80;;